Aérodrome :
LOGIN :

S'inscrire | Disclaimer

   EN    FR    IT 

 










Légende :    VFR   VFR Marginal   IFR   IFR Intensif   IFR Très Intensif
Visi : 
Plafond : 
>= 8 km
>= 3000ft
5 à 8 km
1000 à 3000 ft
1500m à 5 km
500 à 1000 ft
800 à 1500m
200 à 500 ft
< 800m
< 200 ft
Symboles :   Orages  Brouillard  Fortes neiges  Fortes précipitations  Vent > 20 kt
SIGMETs :   Divers  Orages  Givrage  Turbulence  Onde Orograph.  Cendres Volcan.







- Altitude de l'aérodrome : 37 ft


EHVL - Vlieland Heliport

DERNIER METAR :
  • 250625Z AUTO 33026KT 7000 RA FEW011 SCT018 BKN022 04/01 Q1004 WHT

METARs EXPIRÉS :
  • 250611Z AUTO 33016KT 9999 SCT015 BKN020 06/03 Q1003 WHT
  • 250555Z AUTO 34017KT 9999 FEW082 SCT088 BKN100 05/03 Q1003 BLU
  • 250545Z AUTO 33020KT 290V350 9999 -RA FEW011 SCT018 BKN023 05/02 Q1003 WHT
  • 250531Z AUTO 30017KT 9999 FEW017 SCT034 BKN044 05/01 Q1003 BLU
  • 250525Z AUTO 29021KT 9999 FEW017 BKN020 BKN025 05/01 Q1003 WHT
  • 250459Z AUTO 27020KT 9999 FEW015CB SCT026 BKN032 04/02 Q1003 BLU
  • 250445Z AUTO 29023KT 9999 -SHRA FEW012 FEW015CB SCT017 BKN022 04/02 Q1003 WHT
  • 250441Z AUTO 30025KT 3400 SHRA FEW005 FEW015CB BKN017 OVC022 03/02 Q1003 YLO
  • 250437Z AUTO 30024KT 9999 -SHRA FEW005 SCT012 FEW015CB BKN019 04/02 Q1003 GRN
  • 250425Z AUTO 30019KT 9999 -RA FEW015CB SCT026 BKN033 05/02 Q1002 BLU
  • 250411Z AUTO 29019KT 9999 FEW015CB 05/02 Q1003 BLU
  • 250355Z AUTO 29021KT 9999 RA FEW010 FEW015CB BKN020 BKN024 04/01 Q1003 WHT
  • 250336Z AUTO 27021KT 250V310 5000 RA FEW014 SCT021 BKN026 04/01 Q1003 WHT

Prévision TAF périmée.
Pas de NOTAMs connus pour ce terrain.



MET'MAP, la Météo Aéronautique d'un coup d'oeil ! - Copyright ORBIFLY Décembre 2007 - Disclaimer

ORBIFLY MET'MAP TEAM :

Programmation & Développement : Alexandra Zaïnal
Conception & Développement : Baudouin d'Aumeries
Co-Programmation & Développement : Marc-Olivier Méhu
Soutien technique & logistique : Manuel Goepfert

Contact : metmap@orbifly.com




SOURCES & CREDITS :

   NOAA